createdAt,value
2023-05-14T00:00:54.512Z,101023.50
2023-05-14T00:03:58.810Z,101023.81
2023-05-14T00:07:01.939Z,101011.41
2023-05-14T00:10:06.279Z,101006.97
2023-05-14T00:13:09.218Z,101001.50
2023-05-14T00:16:12.390Z,101003.22
2023-05-14T00:19:15.051Z,101004.06
2023-05-14T00:22:18.285Z,100997.19
2023-05-14T00:25:21.079Z,100997.06
2023-05-14T00:28:23.796Z,100991.75
2023-05-14T00:31:26.322Z,100988.19
2023-05-14T00:34:29.513Z,100988.19
2023-05-14T00:37:32.740Z,100982.13
2023-05-14T00:40:37.139Z,100975.06
2023-05-14T00:43:39.788Z,100973.22
2023-05-14T00:46:43.833Z,100966.94
2023-05-14T00:49:47.239Z,100966.94
2023-05-14T00:52:50.299Z,100966.75
2023-05-14T00:55:53.521Z,100964.97
2023-05-14T00:58:56.156Z,100957.16
2023-05-14T01:01:59.009Z,100957.91
2023-05-14T01:05:02.753Z,100956.25
2023-05-14T01:08:32.942Z,100958.81
2023-05-14T01:12:12.433Z,100951.81
2023-05-14T01:15:21.864Z,100948.25
2023-05-14T01:18:27.505Z,100945.53
2023-05-14T01:21:44.016Z,100943.69
2023-05-14T01:24:46.852Z,100941.72
2023-05-14T01:28:11.851Z,100944.34
2023-05-14T01:31:25.210Z,100933.94
2023-05-14T01:34:31.337Z,100934.91
2023-05-14T01:37:37.538Z,100927.00
2023-05-14T01:40:42.461Z,100929.56
2023-05-14T01:43:45.749Z,100919.91
2023-05-14T01:46:48.569Z,100916.50
2023-05-14T01:49:52.501Z,100910.41
2023-05-14T01:52:56.725Z,100905.06
2023-05-14T01:56:01.115Z,100904.22
2023-05-14T01:59:03.782Z,100903.34
2023-05-14T02:02:06.595Z,100900.72
2023-05-14T02:05:11.330Z,100901.56
2023-05-14T02:08:13.767Z,100904.94
2023-05-14T02:11:16.956Z,100903.22
2023-05-14T02:14:20.004Z,100905.78
2023-05-14T02:17:23.182Z,100899.78
2023-05-14T02:20:26.529Z,100904.00
2023-05-14T02:23:40.421Z,100902.34
2023-05-14T02:26:44.629Z,100898.78
2023-05-14T02:29:47.263Z,100908.37
2023-05-14T02:32:50.521Z,100898.72
2023-05-14T02:35:53.288Z,100890.84
2023-05-14T02:38:56.195Z,100891.66
2023-05-14T02:41:58.652Z,100897.59
2023-05-14T02:45:02.166Z,100894.87
2023-05-14T02:48:06.375Z,100898.37
2023-05-14T02:51:09.504Z,100890.47
2023-05-14T02:54:11.947Z,100893.84
2023-05-14T02:57:14.630Z,100894.69
2023-05-14T03:00:18.134Z,100891.19
2023-05-14T03:03:21.785Z,100895.50
2023-05-14T03:06:24.947Z,100892.06
2023-05-14T03:09:28.250Z,100894.56
2023-05-14T03:12:30.893Z,100880.56
2023-05-14T03:15:33.803Z,100883.12
2023-05-14T03:18:36.932Z,100882.28
2023-05-14T03:21:40.840Z,100883.12
2023-05-14T03:24:43.881Z,100878.78
2023-05-14T03:27:46.909Z,100880.56
2023-05-14T03:30:50.585Z,100875.41
2023-05-14T03:33:53.487Z,100882.41
2023-05-14T03:36:57.060Z,100885.06
2023-05-14T03:40:00.169Z,100886.81
2023-05-14T03:43:02.793Z,100880.03
2023-05-14T03:46:05.663Z,100874.81
2023-05-14T03:49:09.039Z,100873.16
2023-05-14T03:52:13.092Z,100855.72
2023-05-14T03:55:15.763Z,100860.06
2023-05-14T03:58:18.460Z,100861.88
2023-05-14T04:01:21.271Z,100877.66
2023-05-14T04:04:24.780Z,100875.13
2023-05-14T04:07:28.956Z,100873.34
2023-05-14T04:10:32.377Z,100870.78
2023-05-14T04:13:35.378Z,100872.50
2023-05-14T04:16:41.705Z,100875.22
2023-05-14T04:19:46.452Z,100872.62
2023-05-14T04:22:49.693Z,100872.56
2023-05-14T04:25:52.279Z,100878.72
2023-05-14T04:28:56.464Z,100876.12
2023-05-14T04:32:02.988Z,100864.78
2023-05-14T04:35:07.126Z,100869.12
2023-05-14T04:38:11.492Z,100859.50
2023-05-14T04:41:14.396Z,100863.06
2023-05-14T04:44:17.985Z,100866.56
2023-05-14T04:47:24.640Z,100862.25
2023-05-14T04:50:27.730Z,100861.41
2023-05-14T04:53:31.573Z,100861.47
2023-05-14T04:56:34.535Z,100862.34
2023-05-14T04:59:40.487Z,100851.97
2023-05-14T05:02:43.661Z,100849.25
2023-05-14T05:05:47.335Z,100848.59
2023-05-14T05:08:50.208Z,100839.88
2023-05-14T05:11:53.234Z,100844.31
2023-05-14T05:14:58.695Z,100845.16
2023-05-14T05:18:03.689Z,100855.75
2023-05-14T05:21:10.547Z,100842.75
2023-05-14T05:24:16.681Z,100852.31
2023-05-14T05:27:21.139Z,100850.69
2023-05-14T05:30:25.517Z,100844.75
2023-05-14T05:33:30.121Z,100846.47
2023-05-14T05:36:33.474Z,100849.97
2023-05-14T05:39:36.275Z,100847.37
2023-05-14T05:42:43.736Z,100851.59
2023-05-14T05:45:49.408Z,100848.09
2023-05-14T05:48:59.366Z,100847.31
2023-05-14T05:52:04.104Z,100851.59
2023-05-14T05:55:09.647Z,100848.97
2023-05-14T05:58:19.458Z,100848.94
2023-05-14T06:01:30.828Z,100855.81
2023-05-14T06:04:34.624Z,100847.09
2023-05-14T06:07:47.717Z,100859.25
2023-05-14T06:10:52.181Z,100853.09
2023-05-14T06:13:55.887Z,100850.47
2023-05-14T06:16:59.168Z,100851.38
2023-05-14T06:20:02.036Z,100854.81
2023-05-14T06:23:12.490Z,100858.41
2023-05-14T06:26:15.980Z,100864.59
2023-05-14T06:29:19.115Z,100861.09
2023-05-14T06:32:22.051Z,100854.16
2023-05-14T06:35:29.494Z,100860.31
2023-05-14T06:38:41.931Z,100859.59
2023-05-14T06:41:46.656Z,100855.44
2023-05-14T06:44:51.020Z,100847.59
2023-05-14T06:47:57.658Z,100846.94
2023-05-14T06:51:01.448Z,100840.87
2023-05-14T06:54:07.941Z,100832.38
2023-05-14T06:57:14.710Z,100830.84
2023-05-14T07:00:24.289Z,100823.00
2023-05-14T07:03:30.430Z,100821.56
2023-05-14T07:06:39.948Z,100823.53
2023-05-14T07:09:46.689Z,100825.78
2023-05-14T07:12:50.465Z,100829.56
2023-05-14T07:16:00.690Z,100821.03
2023-05-14T07:19:13.540Z,100816.66
2023-05-14T07:22:19.034Z,100815.31
2023-05-14T07:25:22.387Z,100813.03
2023-05-14T07:28:26.371Z,100807.31
2023-05-14T07:31:34.393Z,100805.22
2023-05-14T07:34:38.943Z,100801.91
2023-05-14T07:37:53.398Z,100806.03
2023-05-14T07:40:56.410Z,100809.22
2023-05-14T07:44:04.585Z,100801.38
2023-05-14T07:47:12.513Z,100794.81
2023-05-14T07:50:26.089Z,100792.34
2023-05-14T07:53:33.508Z,100789.72
2023-05-14T07:56:41.956Z,100783.47
2023-05-14T07:59:52.353Z,100779.53
2023-05-14T08:03:00.628Z,100770.38
2023-05-14T08:06:19.410Z,100765.28
2023-05-14T08:09:22.867Z,100765.00
2023-05-14T08:12:38.457Z,100758.97
2023-05-14T08:15:55.680Z,100756.94
2023-05-14T08:19:00.124Z,100756.31
2023-05-14T08:22:03.990Z,100756.75
2023-05-14T08:25:13.875Z,100742.03
2023-05-14T08:28:20.453Z,100743.28
2023-05-14T08:31:24.570Z,100744.78
2023-05-14T08:34:31.648Z,100740.62
2023-05-14T08:37:35.495Z,100742.44
2023-05-14T08:40:39.887Z,100738.97
2023-05-14T08:44:12.973Z,100736.19
2023-05-14T08:47:31.526Z,100727.63
2023-05-14T08:50:43.318Z,100735.59
2023-05-14T08:53:49.619Z,100728.94
2023-05-14T08:56:57.793Z,100717.41
2023-05-14T09:00:12.102Z,100718.50
2023-05-14T09:03:22.580Z,100719.69
2023-05-14T09:06:43.969Z,100713.94
2023-05-14T09:09:51.108Z,100710.34
2023-05-14T09:13:01.476Z,100709.09
2023-05-14T09:16:05.767Z,100711.00
2023-05-14T09:19:09.548Z,100711.03
2023-05-14T09:22:19.384Z,100707.22
2023-05-14T09:25:28.464Z,100691.63
2023-05-14T09:28:42.687Z,100699.25
2023-05-14T09:31:59.483Z,100692.41
2023-05-14T09:35:12.741Z,100676.47
2023-05-14T09:38:24.409Z,100680.16
2023-05-14T09:41:28.029Z,100676.00
2023-05-14T09:44:33.161Z,100668.22
2023-05-14T09:47:53.708Z,100659.75
2023-05-14T09:51:06.581Z,100648.28
2023-05-14T09:54:10.226Z,100643.13
2023-05-14T09:57:31.485Z,100641.50
2023-05-14T10:00:38.470Z,100644.09
2023-05-14T10:03:42.008Z,100648.16
2023-05-14T10:06:52.613Z,100629.59
2023-05-14T10:10:09.516Z,100615.69
2023-05-14T10:13:32.331Z,100589.44
2023-05-14T10:16:49.482Z,100583.47
2023-05-14T10:19:58.870Z,100581.66
2023-05-14T10:23:09.686Z,100575.44
2023-05-14T10:26:16.355Z,100559.84
2023-05-14T10:29:39.423Z,100567.00
2023-05-14T10:32:49.952Z,100586.41
2023-05-14T10:36:14.369Z,100589.78
2023-05-14T10:39:18.968Z,100586.53
2023-05-14T10:42:36.153Z,100597.06
2023-05-14T10:45:57.327Z,100589.28
2023-05-14T10:49:10.518Z,100588.47
2023-05-14T10:52:20.449Z,100590.25
2023-05-14T10:55:34.413Z,100588.56
2023-05-14T10:58:40.880Z,100583.34
2023-05-14T11:01:46.898Z,100579.16
2023-05-14T11:05:00.208Z,100573.78
2023-05-14T11:08:14.479Z,100571.22
2023-05-14T11:11:26.378Z,100558.09
2023-05-14T11:14:47.479Z,100564.91
2023-05-14T11:17:53.832Z,100564.06
2023-05-14T11:21:05.702Z,100561.38
2023-05-14T11:24:09.920Z,100551.75
2023-05-14T11:27:23.434Z,100556.91
2023-05-14T11:30:32.343Z,100561.34
2023-05-14T11:33:48.764Z,100561.22
2023-05-14T11:37:00.373Z,100561.25
2023-05-14T11:40:20.448Z,100560.31
2023-05-14T11:43:35.735Z,100555.00
2023-05-14T11:46:55.048Z,100553.13
2023-05-14T11:50:19.368Z,100542.59
2023-05-14T11:53:32.541Z,100542.50
2023-05-14T11:56:37.821Z,100539.91
2023-05-14T11:59:45.773Z,100530.19
2023-05-14T12:03:03.619Z,100523.31
2023-05-14T12:06:13.935Z,100523.28
2023-05-14T12:09:24.855Z,100518.00
2023-05-14T12:12:48.331Z,100514.44
2023-05-14T12:16:18.435Z,100503.78
2023-05-14T12:19:29.569Z,100493.41
2023-05-14T12:22:35.123Z,100483.81
2023-05-14T12:25:53.010Z,100493.41
2023-05-14T12:29:01.759Z,100481.19
2023-05-14T12:32:16.654Z,100485.41
2023-05-14T12:35:28.398Z,100490.72
2023-05-14T12:38:35.434Z,100498.37
2023-05-14T12:41:52.846Z,100486.16
2023-05-14T12:45:05.349Z,100491.37
2023-05-14T12:48:15.701Z,100491.50
2023-05-14T12:51:32.792Z,100488.97
2023-05-14T12:54:47.453Z,100475.72
2023-05-14T12:58:04.636Z,100458.34
2023-05-14T13:01:08.010Z,100456.59
2023-05-14T13:04:15.711Z,100449.59
2023-05-14T13:07:25.909Z,100450.50
2023-05-14T13:10:37.589Z,100440.78
2023-05-14T13:13:44.504Z,100435.56
2023-05-14T13:16:51.756Z,100433.06
2023-05-14T13:19:56.120Z,100438.25
2023-05-14T13:23:12.429Z,100431.13
2023-05-14T13:26:24.430Z,100427.53
2023-05-14T13:29:41.410Z,100424.97
2023-05-14T13:32:48.479Z,100413.59
2023-05-14T13:35:58.667Z,100414.59
2023-05-14T13:39:02.619Z,100415.50
2023-05-14T13:42:08.714Z,100408.50
2023-05-14T13:45:18.941Z,100406.75
2023-05-14T13:48:26.286Z,100399.75
2023-05-14T13:51:54.507Z,100394.53
2023-05-14T13:54:58.433Z,100398.16
2023-05-14T13:58:10.644Z,100382.44
2023-05-14T14:01:20.156Z,100373.72
2023-05-14T14:04:30.451Z,100391.06
2023-05-14T14:07:35.831Z,100370.03
2023-05-14T14:10:42.714Z,100368.19
2023-05-14T14:13:52.827Z,100374.97
2023-05-14T14:17:04.520Z,100373.09
2023-05-14T14:20:13.947Z,100371.16
2023-05-14T14:23:19.750Z,100365.78
2023-05-14T14:26:37.538Z,100364.84
2023-05-14T14:29:41.417Z,100371.81
2023-05-14T14:32:48.867Z,100358.78
2023-05-14T14:36:03.458Z,100352.69
2023-05-14T14:39:19.885Z,100343.94
2023-05-14T14:42:26.594Z,100349.19
2023-05-14T14:45:31.001Z,100337.78
2023-05-14T14:48:39.338Z,100324.66
2023-05-14T14:51:44.458Z,100332.41
2023-05-14T14:54:51.574Z,100328.81
2023-05-14T14:57:54.441Z,100329.59
2023-05-14T15:01:08.002Z,100327.88
2023-05-14T15:04:12.825Z,100316.53
2023-05-14T15:07:22.913Z,100318.28
2023-05-14T15:10:43.519Z,100318.16
2023-05-14T15:13:52.757Z,100319.03
2023-05-14T15:17:01.521Z,100300.69
2023-05-14T15:20:13.648Z,100307.66
2023-05-14T15:23:29.508Z,100298.06
2023-05-14T15:26:39.572Z,100305.81
2023-05-14T15:29:43.427Z,100312.69
2023-05-14T15:32:47.066Z,100309.13
2023-05-14T15:35:51.462Z,100305.59
2023-05-14T15:39:03.461Z,100308.16
2023-05-14T15:42:08.064Z,100303.78
2023-05-14T15:45:14.403Z,100299.34
2023-05-14T15:48:20.041Z,100294.13
2023-05-14T15:51:28.450Z,100284.56
2023-05-14T15:54:37.631Z,100259.22
2023-05-14T15:57:49.161Z,100261.88
2023-05-14T16:00:54.930Z,100250.50
2023-05-14T16:03:59.825Z,100243.56
2023-05-14T16:07:11.636Z,100238.34
2023-05-14T16:10:21.763Z,100254.03
2023-05-14T16:13:27.981Z,100244.50
2023-05-14T16:16:38.084Z,100245.38
2023-05-14T16:19:43.623Z,100245.34
2023-05-14T16:23:05.870Z,100242.75
2023-05-14T16:26:17.540Z,100238.34
2023-05-14T16:29:23.014Z,100235.78
2023-05-14T16:32:32.773Z,100234.06
2023-05-14T16:35:41.638Z,100227.06
2023-05-14T16:39:06.782Z,100224.44
2023-05-14T16:42:28.335Z,100233.09
2023-05-14T16:45:47.365Z,100208.75
2023-05-14T16:49:02.589Z,100204.41
2023-05-14T16:52:15.344Z,100197.50
2023-05-14T16:55:25.503Z,100209.75
2023-05-14T16:58:40.651Z,100208.91
2023-05-14T17:01:57.476Z,100206.31
2023-05-14T17:05:07.484Z,100204.59
2023-05-14T17:08:19.384Z,100202.87
2023-05-14T17:11:26.425Z,100194.91
2023-05-14T17:14:47.355Z,100198.44
2023-05-14T17:18:05.498Z,100191.53
2023-05-14T17:21:16.840Z,100175.84
2023-05-14T17:24:24.415Z,100167.25
2023-05-14T17:27:37.448Z,100165.44
2023-05-14T17:30:59.423Z,100164.72
2023-05-14T17:34:10.712Z,100164.75
2023-05-14T17:37:24.619Z,100156.03
2023-05-14T17:40:28.600Z,100158.63
2023-05-14T17:43:37.428Z,100162.13
2023-05-14T17:46:50.065Z,100162.97
2023-05-14T17:50:05.417Z,100164.84
2023-05-14T17:53:15.347Z,100163.00
2023-05-14T17:56:20.419Z,100151.63
2023-05-14T17:59:29.444Z,100142.03
2023-05-14T18:02:35.441Z,100135.03
2023-05-14T18:05:39.703Z,100136.88
2023-05-14T18:08:45.405Z,100124.69
2023-05-14T18:12:08.336Z,100120.34
2023-05-14T18:15:22.464Z,100115.06
2023-05-14T18:18:35.329Z,100116.84
2023-05-14T18:21:38.758Z,100114.19
2023-05-14T18:24:51.577Z,100120.34
2023-05-14T18:27:57.717Z,100128.13
2023-05-14T18:31:12.589Z,100129.91
2023-05-14T18:34:19.986Z,100132.59
2023-05-14T18:37:24.449Z,100134.34
2023-05-14T18:40:46.448Z,100134.34
2023-05-14T18:43:58.109Z,100141.31
2023-05-14T18:47:21.395Z,100145.69
2023-05-14T18:50:33.484Z,100139.66
2023-05-14T18:53:38.361Z,100118.75
2023-05-14T18:56:47.777Z,100137.12
2023-05-14T18:59:59.630Z,100137.16
2023-05-14T19:03:08.072Z,100130.16
2023-05-14T19:06:18.945Z,100141.59
2023-05-14T19:09:27.685Z,100134.66
2023-05-14T19:12:41.564Z,100132.91
2023-05-14T19:15:51.765Z,100118.94
2023-05-14T19:18:57.690Z,100121.59
2023-05-14T19:22:04.690Z,100116.38
2023-05-14T19:25:11.642Z,100118.13
2023-05-14T19:28:16.824Z,100102.38
2023-05-14T19:31:19.910Z,100097.16
2023-05-14T19:34:42.445Z,100100.69
2023-05-14T19:37:47.439Z,100100.69
2023-05-14T19:40:51.324Z,100096.41
2023-05-14T19:43:56.278Z,100107.75
2023-05-14T19:47:01.622Z,100113.03
2023-05-14T19:50:09.616Z,100116.50
2023-05-14T19:53:16.459Z,100109.53
2023-05-14T19:56:28.433Z,100106.84
2023-05-14T19:59:44.678Z,100110.34
2023-05-14T20:02:47.959Z,100108.59
2023-05-14T20:05:56.587Z,100109.47
2023-05-14T20:09:01.935Z,100110.31
2023-05-14T20:12:05.580Z,100103.31
2023-05-14T20:15:11.017Z,100082.44
2023-05-14T20:18:19.641Z,100092.94
2023-05-14T20:21:30.799Z,100106.09
2023-05-14T20:24:37.883Z,100089.53
2023-05-14T20:27:46.812Z,100096.44
2023-05-14T20:30:49.886Z,100081.78
2023-05-14T20:33:54.898Z,100075.88
2023-05-14T20:36:58.362Z,100071.00
2023-05-14T20:40:06.741Z,100057.09
2023-05-14T20:43:09.844Z,100048.50
2023-05-14T20:46:20.797Z,100040.66
2023-05-14T20:49:25.780Z,100029.22
2023-05-14T20:52:29.110Z,100033.50
2023-05-14T20:55:33.607Z,100036.03
2023-05-14T20:58:36.313Z,100042.91
2023-05-14T21:01:39.124Z,100023.69
2023-05-14T21:04:42.167Z,100009.69
2023-05-14T21:07:48.820Z,100007.91
2023-05-14T21:10:54.962Z,100013.94
2023-05-14T21:13:58.405Z,100009.53
2023-05-14T21:17:00.982Z,99999.03
2023-05-14T21:20:07.578Z,100005.97
2023-05-14T21:23:12.828Z,99999.88
2023-05-14T21:26:15.928Z,99994.63
2023-05-14T21:29:22.576Z,99990.28
2023-05-14T21:32:31.386Z,99980.66
2023-05-14T21:35:34.976Z,99980.66
2023-05-14T21:38:38.731Z,99966.69
2023-05-14T21:41:41.699Z,99964.06
2023-05-14T21:44:45.027Z,99952.78
2023-05-14T21:47:48.632Z,99943.16
2023-05-14T21:50:54.379Z,99943.16
2023-05-14T21:54:01.521Z,99943.19
2023-05-14T21:57:05.052Z,99946.66
2023-05-14T22:00:13.070Z,99964.16
2023-05-14T22:03:19.601Z,99957.97
2023-05-14T22:06:23.815Z,99962.34
2023-05-14T22:09:26.725Z,99967.59
2023-05-14T22:12:29.442Z,99966.72
2023-05-14T22:15:38.811Z,99978.13
2023-05-14T22:18:42.736Z,99985.16
2023-05-14T22:21:46.530Z,99979.13
2023-05-14T22:24:49.826Z,99974.72
2023-05-14T22:27:53.098Z,99974.72
2023-05-14T22:30:56.548Z,99969.47
2023-05-14T22:34:06.431Z,99966.88
2023-05-14T22:37:09.467Z,99973.84
2023-05-14T22:40:13.686Z,99968.63
2023-05-14T22:43:16.164Z,99971.25
2023-05-14T22:46:22.894Z,99964.31
2023-05-14T22:49:26.488Z,99969.56
2023-05-14T22:52:29.385Z,99971.25
2023-05-14T22:55:31.824Z,99965.13
2023-05-14T22:58:34.921Z,99965.13
2023-05-14T23:01:38.094Z,99974.75
2023-05-14T23:04:40.864Z,99968.59
2023-05-14T23:07:43.789Z,99959.88
2023-05-14T23:10:46.694Z,99953.78
2023-05-14T23:13:49.462Z,99949.38
2023-05-14T23:16:52.194Z,99940.66
2023-05-14T23:19:54.929Z,99925.81
2023-05-14T23:22:57.748Z,99925.78
2023-05-14T23:26:00.399Z,99922.25
2023-05-14T23:29:05.356Z,99918.78
2023-05-14T23:32:09.115Z,99919.63
2023-05-14T23:35:11.964Z,99910.00
2023-05-14T23:38:14.737Z,99917.84
2023-05-14T23:41:17.445Z,99912.59
2023-05-14T23:44:20.650Z,99914.38
2023-05-14T23:47:23.628Z,99906.53
2023-05-14T23:50:26.952Z,99894.31
2023-05-14T23:53:29.616Z,99894.28
2023-05-14T23:56:32.214Z,99888.19
2023-05-14T23:59:35.679Z,99883.81
